createdAt,value
2018-02-11T00:00:52.181Z,24.37
2018-02-11T00:03:18.414Z,21.23
2018-02-11T00:05:44.557Z,29.30
2018-02-11T00:08:10.770Z,22.20
2018-02-11T00:10:36.891Z,24.03
2018-02-11T00:13:03.056Z,26.27
2018-02-11T00:15:29.980Z,24.03
2018-02-11T00:17:56.111Z,23.43
2018-02-11T00:20:22.275Z,20.47
2018-02-11T00:22:49.184Z,23.03
2018-02-11T00:25:15.368Z,24.17
2018-02-11T00:27:41.598Z,28.40
2018-02-11T00:30:07.767Z,24.50
2018-02-11T00:32:33.971Z,26.70
2018-02-11T00:35:00.120Z,26.00
2018-02-11T00:37:32.522Z,23.10
2018-02-11T00:39:59.414Z,21.27
2018-02-11T00:42:25.628Z,28.63
2018-02-11T00:44:51.838Z,21.33
2018-02-11T00:47:17.981Z,25.17
2018-02-11T00:49:44.149Z,21.80
2018-02-11T00:52:10.283Z,29.87
2018-02-11T00:54:36.448Z,31.00
2018-02-11T00:57:03.401Z,24.80
2018-02-11T00:59:29.531Z,28.60
2018-02-11T01:01:55.700Z,25.67
2018-02-11T01:04:21.856Z,28.37
2018-02-11T01:06:48.814Z,26.87
2018-02-11T01:09:14.945Z,21.90
2018-02-11T01:11:41.133Z,29.83
2018-02-11T01:14:07.294Z,24.67
2018-02-11T01:16:34.199Z,25.53
2018-02-11T01:19:00.413Z,26.07
2018-02-11T01:21:26.576Z,30.40
2018-02-11T01:23:53.480Z,31.10
2018-02-11T01:26:19.707Z,29.63
2018-02-11T01:28:45.909Z,30.50
2018-02-11T01:31:12.038Z,27.97
2018-02-11T01:33:38.232Z,31.97
2018-02-11T01:36:05.108Z,30.00
2018-02-11T01:38:31.314Z,29.60
2018-02-11T01:40:58.235Z,24.53
2018-02-11T01:43:24.442Z,28.60
2018-02-11T01:45:50.675Z,30.23
2018-02-11T01:48:16.872Z,33.07
2018-02-11T01:50:43.044Z,30.00
2018-02-11T01:53:10.000Z,30.43
2018-02-11T01:55:36.927Z,31.80
2018-02-11T01:58:03.138Z,30.37
2018-02-11T02:00:29.367Z,30.77
2018-02-11T02:02:55.581Z,28.03
2018-02-11T02:05:21.702Z,30.23
2018-02-11T02:07:47.933Z,32.80
2018-02-11T02:10:14.083Z,29.90
2018-02-11T02:12:40.282Z,27.23
2018-02-11T02:15:06.449Z,33.67
2018-02-11T02:17:33.384Z,29.93
2018-02-11T02:19:59.628Z,25.53
2018-02-11T02:22:26.504Z,31.27
2018-02-11T02:24:53.447Z,29.33
2018-02-11T02:27:19.630Z,27.70
2018-02-11T02:29:45.800Z,31.07
2018-02-11T02:32:12.689Z,29.47
2018-02-11T02:34:38.819Z,27.63
2018-02-11T02:37:05.022Z,26.30
2018-02-11T02:39:31.156Z,29.53
2018-02-11T02:41:57.341Z,27.47
2018-02-11T02:44:24.201Z,27.10
2018-02-11T02:46:50.382Z,28.40
2018-02-11T02:49:16.619Z,26.00
2018-02-11T02:51:43.501Z,26.10
2018-02-11T02:54:09.663Z,26.30
2018-02-11T02:56:35.847Z,24.40
2018-02-11T02:59:02.036Z,26.83
2018-02-11T03:01:28.220Z,25.47
2018-02-11T03:03:54.396Z,26.50
2018-02-11T03:06:21.331Z,24.90
2018-02-11T03:08:47.522Z,25.27
2018-02-11T03:11:13.710Z,29.47
2018-02-11T03:13:40.663Z,29.90
2018-02-11T03:16:07.562Z,28.27
2018-02-11T03:18:33.730Z,28.47
2018-02-11T03:21:00.740Z,28.87
2018-02-11T03:23:26.953Z,31.80
2018-02-11T03:25:53.093Z,30.43
2018-02-11T03:28:19.278Z,27.53
2018-02-11T03:30:45.508Z,27.20
2018-02-11T03:33:11.689Z,33.57
2018-02-11T03:35:37.848Z,29.70
2018-02-11T03:38:04.743Z,31.97
2018-02-11T03:40:30.911Z,30.30
2018-02-11T03:42:57.852Z,25.43
2018-02-11T03:45:24.836Z,29.43
2018-02-11T03:47:50.963Z,24.77
2018-02-11T03:50:17.135Z,28.27
2018-02-11T03:52:44.091Z,26.80
2018-02-11T03:55:11.046Z,26.80
2018-02-11T03:57:38.006Z,26.50
2018-02-11T04:00:04.174Z,30.10
2018-02-11T04:02:30.337Z,27.60
2018-02-11T04:04:56.460Z,29.63
2018-02-11T04:07:23.385Z,27.23
2018-02-11T04:09:49.521Z,30.17
2018-02-11T04:12:15.632Z,28.20
2018-02-11T04:14:41.842Z,28.40
2018-02-11T04:17:08.072Z,28.77
2018-02-11T04:19:34.211Z,25.63
2018-02-11T04:22:00.364Z,27.00
2018-02-11T04:24:26.510Z,27.57
2018-02-11T04:26:53.450Z,28.43
2018-02-11T04:29:20.329Z,29.07
2018-02-11T04:31:46.507Z,28.83
2018-02-11T04:34:13.393Z,26.83
2018-02-11T04:36:39.545Z,25.93
2018-02-11T04:39:05.698Z,24.93
2018-02-11T04:41:32.566Z,23.50
2018-02-11T04:43:59.428Z,30.80
2018-02-11T04:46:25.638Z,31.67
2018-02-11T04:48:52.561Z,26.20
2018-02-11T04:51:19.478Z,26.23
2018-02-11T04:53:45.654Z,29.20
2018-02-11T04:56:12.575Z,28.50
2018-02-11T04:58:39.485Z,28.60
2018-02-11T05:01:05.736Z,28.07
2018-02-11T05:03:32.674Z,24.80
2018-02-11T05:05:58.862Z,26.70
2018-02-11T05:08:25.054Z,26.77
2018-02-11T05:10:51.967Z,26.80
2018-02-11T05:13:18.107Z,29.90
2018-02-11T05:15:44.240Z,27.87
2018-02-11T05:18:10.389Z,26.70
2018-02-11T05:20:37.310Z,24.43
2018-02-11T05:23:04.231Z,30.83
2018-02-11T05:25:30.407Z,23.23
2018-02-11T05:27:57.301Z,30.03
2018-02-11T05:30:23.480Z,27.20
2018-02-11T05:32:50.381Z,23.07
2018-02-11T05:35:16.576Z,26.77
2018-02-11T05:37:42.751Z,23.63
2018-02-11T05:40:09.668Z,25.23
2018-02-11T05:42:35.804Z,22.57
2018-02-11T05:45:01.983Z,25.20
2018-02-11T05:47:28.171Z,23.77
2018-02-11T05:49:54.348Z,23.43
2018-02-11T05:52:20.575Z,23.87
2018-02-11T05:54:46.731Z,24.40
2018-02-11T05:57:12.877Z,23.97
2018-02-11T05:59:39.023Z,23.63
2018-02-11T06:02:05.945Z,24.30
2018-02-11T06:04:32.138Z,23.50
2018-02-11T06:06:58.322Z,24.50
2018-02-11T06:09:25.302Z,22.93
2018-02-11T06:11:51.505Z,25.90
2018-02-11T06:14:18.390Z,23.83
2018-02-11T06:16:44.520Z,23.57
2018-02-11T06:19:10.628Z,22.93
2018-02-11T06:21:36.874Z,26.00
2018-02-11T06:24:03.135Z,25.97
2018-02-11T06:26:31.013Z,20.80
2018-02-11T06:28:57.953Z,23.33
2018-02-11T06:31:24.121Z,26.13
2018-02-11T06:33:50.300Z,29.03
2018-02-11T06:36:17.060Z,23.93
2018-02-11T06:38:44.074Z,39.97
2018-02-11T06:41:10.253Z,27.83
2018-02-11T06:43:36.411Z,22.10
2018-02-11T06:46:02.631Z,26.37
2018-02-11T06:48:28.850Z,26.77
2018-02-11T06:50:55.045Z,25.00
2018-02-11T06:53:21.968Z,27.00
2018-02-11T06:55:48.109Z,29.23
2018-02-11T06:58:15.014Z,25.43
2018-02-11T07:00:41.144Z,24.10
2018-02-11T07:03:07.309Z,25.33
2018-02-11T07:05:33.477Z,26.60
2018-02-11T07:07:59.656Z,29.77
2018-02-11T07:10:25.856Z,32.73
2018-02-11T07:12:52.045Z,32.73
2018-02-11T07:15:18.289Z,31.17
2018-02-11T07:17:44.444Z,36.30
2018-02-11T07:20:10.627Z,30.73
2018-02-11T07:22:36.991Z,26.80
2018-02-11T07:25:03.228Z,27.23
2018-02-11T07:27:29.396Z,26.37
2018-02-11T07:29:56.313Z,33.37
2018-02-11T07:32:22.424Z,28.80
2018-02-11T07:34:48.612Z,26.67
2018-02-11T07:37:14.866Z,29.60
2018-02-11T07:39:41.074Z,25.77
2018-02-11T07:42:07.276Z,24.87
2018-02-11T07:44:34.151Z,25.87
2018-02-11T07:47:00.306Z,24.50
2018-02-11T07:49:26.513Z,25.00
2018-02-11T07:51:52.663Z,23.37
2018-02-11T07:54:18.886Z,26.40
2018-02-11T07:56:45.097Z,22.70
2018-02-11T07:59:11.310Z,23.10
2018-02-11T08:01:37.469Z,23.80
2018-02-11T08:04:03.660Z,25.27
2018-02-11T08:06:29.825Z,25.43
2018-02-11T08:08:56.592Z,21.87
2018-02-11T08:11:23.525Z,23.90
2018-02-11T08:13:49.745Z,23.40
2018-02-11T08:16:15.927Z,19.97
2018-02-11T08:18:42.041Z,21.77
2018-02-11T08:21:08.943Z,20.00
2018-02-11T08:23:35.124Z,20.50
2018-02-11T08:26:01.348Z,18.90
2018-02-11T08:28:27.522Z,21.07
2018-02-11T08:30:53.691Z,18.57
2018-02-11T08:33:20.631Z,17.83
2018-02-11T08:35:47.573Z,15.70
2018-02-11T08:38:14.467Z,17.57
2018-02-11T08:40:40.622Z,18.20
2018-02-11T08:43:06.828Z,19.50
2018-02-11T08:45:32.973Z,18.43
2018-02-11T08:47:59.201Z,15.30
2018-02-11T08:50:26.124Z,18.53
2018-02-11T08:52:52.332Z,16.07
2018-02-11T08:55:18.530Z,16.20
2018-02-11T08:57:45.529Z,18.17
2018-02-11T09:00:11.728Z,13.77
2018-02-11T09:02:37.871Z,18.40
2018-02-11T09:05:04.092Z,14.60
2018-02-11T09:07:30.269Z,13.10
2018-02-11T09:09:56.414Z,12.30
2018-02-11T09:12:23.279Z,11.07
2018-02-11T09:14:49.431Z,11.00
2018-02-11T09:17:15.749Z,12.97
2018-02-11T09:19:41.944Z,12.70
2018-02-11T09:22:08.141Z,9.30
2018-02-11T09:24:35.081Z,12.50
2018-02-11T09:27:01.241Z,11.80
2018-02-11T09:29:28.190Z,13.27
2018-02-11T09:31:54.404Z,8.37
2018-02-11T09:34:21.308Z,7.40
2018-02-11T09:36:47.471Z,10.47
2018-02-11T09:39:13.601Z,9.60
2018-02-11T09:41:40.487Z,9.83
2018-02-11T09:44:06.695Z,9.97
2018-02-11T09:46:32.926Z,8.70
2018-02-11T09:48:59.148Z,9.20
2018-02-11T09:51:25.385Z,9.17
2018-02-11T09:53:51.561Z,9.10
2018-02-11T09:56:17.818Z,9.20
2018-02-11T09:58:44.729Z,11.40
2018-02-11T10:01:10.910Z,9.33
2018-02-11T10:03:37.118Z,8.33
2018-02-11T10:06:04.074Z,10.57
2018-02-11T10:08:30.284Z,11.03
2018-02-11T10:10:57.206Z,10.80
2018-02-11T10:13:23.390Z,16.23
2018-02-11T10:15:49.608Z,9.60
2018-02-11T10:18:15.822Z,11.17
2018-02-11T10:20:41.969Z,11.80
2018-02-11T10:23:08.154Z,15.07
2018-02-11T10:25:35.086Z,12.10
2018-02-11T10:28:01.342Z,15.47
2018-02-11T10:30:28.260Z,13.07
2018-02-11T10:32:55.130Z,11.37
2018-02-11T10:35:22.102Z,14.30
2018-02-11T10:37:48.263Z,17.43
2018-02-11T10:40:14.506Z,11.70
2018-02-11T10:42:40.701Z,15.37
2018-02-11T10:45:06.910Z,14.70
2018-02-11T10:47:33.130Z,14.93
2018-02-11T10:49:59.366Z,17.77
2018-02-11T10:52:25.567Z,12.20
2018-02-11T10:54:52.551Z,14.80
2018-02-11T10:57:18.733Z,14.37
2018-02-11T10:59:45.676Z,14.00
2018-02-11T11:02:12.558Z,15.30
2018-02-11T11:04:38.770Z,13.60
2018-02-11T11:07:04.991Z,17.37
2018-02-11T11:09:31.941Z,16.00
2018-02-11T11:11:59.690Z,15.60
2018-02-11T11:14:26.635Z,14.30
2018-02-11T11:16:53.541Z,13.23
2018-02-11T11:19:19.771Z,12.93
2018-02-11T11:21:45.948Z,14.20
2018-02-11T11:24:12.854Z,25.07
2018-02-11T11:26:39.061Z,38.50
2018-02-11T11:29:05.274Z,47.90
2018-02-11T11:31:31.449Z,24.20
2018-02-11T11:33:57.637Z,28.20
2018-02-11T11:36:23.854Z,21.47
2018-02-11T11:38:49.986Z,30.67
2018-02-11T11:41:16.182Z,18.73
2018-02-11T11:43:43.079Z,31.60
2018-02-11T11:46:09.262Z,24.90
2018-02-11T11:48:35.580Z,20.37
2018-02-11T11:51:02.542Z,14.83
2018-02-11T11:53:28.733Z,19.97
2018-02-11T11:55:55.666Z,18.47
2018-02-11T11:58:21.870Z,26.13
2018-02-11T12:00:48.081Z,15.57
2018-02-11T12:03:14.262Z,32.37
2018-02-11T12:05:40.466Z,16.87
2018-02-11T12:08:06.647Z,22.37
2018-02-11T12:10:32.943Z,24.60
2018-02-11T12:12:59.876Z,22.13
2018-02-11T12:15:26.121Z,17.67
2018-02-11T12:17:53.082Z,14.57
2018-02-11T12:20:20.035Z,17.53
2018-02-11T12:22:46.994Z,20.23
2018-02-11T12:25:13.160Z,19.47
2018-02-11T12:27:39.341Z,18.30
2018-02-11T12:30:06.275Z,17.80
2018-02-11T12:32:33.215Z,16.53
2018-02-11T12:35:00.132Z,19.50
2018-02-11T12:37:26.365Z,15.30
2018-02-11T12:39:53.334Z,16.93
2018-02-11T12:42:20.285Z,16.27
2018-02-11T12:44:47.219Z,13.97
2018-02-11T12:47:13.408Z,17.17
2018-02-11T12:49:39.617Z,13.80
2018-02-11T12:52:07.507Z,19.63
2018-02-11T12:54:33.705Z,17.93
2018-02-11T12:56:59.903Z,13.77
2018-02-11T12:59:26.855Z,17.17
2018-02-11T13:01:53.802Z,17.07
2018-02-11T13:04:20.755Z,17.80
2018-02-11T13:06:46.972Z,16.73
2018-02-11T13:09:13.946Z,16.27
2018-02-11T13:11:40.159Z,16.83
2018-02-11T13:14:06.379Z,29.73
2018-02-11T13:16:33.328Z,16.70
2018-02-11T13:18:59.542Z,19.40
2018-02-11T13:21:26.491Z,21.97
2018-02-11T13:23:53.446Z,19.50
2018-02-11T13:26:19.595Z,20.80
2018-02-11T13:28:45.768Z,16.87
2018-02-11T13:31:11.950Z,20.60
2018-02-11T13:33:38.169Z,18.70
2018-02-11T13:36:04.361Z,21.30
2018-02-11T13:38:31.262Z,17.03
2018-02-11T13:40:57.531Z,18.37
2018-02-11T13:43:23.728Z,27.57
2018-02-11T13:45:49.947Z,31.83
2018-02-11T13:48:16.099Z,21.63
2018-02-11T13:50:42.320Z,23.93
2018-02-11T13:53:08.495Z,22.33
2018-02-11T13:55:35.365Z,18.43
2018-02-11T13:58:01.585Z,20.33
2018-02-11T14:00:27.784Z,18.90
2018-02-11T14:02:54.712Z,21.77
2018-02-11T14:05:20.929Z,23.00
2018-02-11T14:07:47.143Z,19.57
2018-02-11T14:10:13.333Z,20.10
2018-02-11T14:12:39.505Z,21.03
2018-02-11T14:15:05.667Z,19.47
2018-02-11T14:17:32.601Z,21.27
2018-02-11T14:19:59.564Z,21.83
2018-02-11T14:22:26.557Z,21.40
2018-02-11T14:24:52.719Z,21.03
2018-02-11T14:27:19.624Z,21.43
2018-02-11T14:29:45.871Z,17.97
2018-02-11T14:32:12.086Z,21.33
2018-02-11T14:34:38.226Z,22.47
2018-02-11T14:37:04.385Z,16.90
2018-02-11T14:39:31.337Z,20.00
2018-02-11T14:41:57.554Z,20.50
2018-02-11T14:44:24.547Z,20.90
2018-02-11T14:46:50.777Z,17.27
2018-02-11T14:49:17.014Z,18.53
2018-02-11T14:51:43.212Z,18.73
2018-02-11T14:54:09.428Z,27.10
2018-02-11T14:56:35.664Z,21.90
2018-02-11T14:59:01.833Z,16.63
2018-02-11T15:01:28.001Z,15.40
2018-02-11T15:03:54.877Z,17.47
2018-02-11T15:06:21.070Z,16.37
2018-02-11T15:08:48.023Z,15.97
2018-02-11T15:11:14.171Z,19.40
2018-02-11T15:13:40.396Z,18.47
2018-02-11T15:16:06.597Z,17.47
2018-02-11T15:18:33.536Z,19.40
2018-02-11T15:21:00.464Z,18.47
2018-02-11T15:23:27.381Z,18.50
2018-02-11T15:25:53.561Z,12.77
2018-02-11T15:28:20.570Z,13.27
2018-02-11T15:30:46.748Z,18.67
2018-02-11T15:33:12.901Z,20.50
2018-02-11T15:35:39.119Z,16.50
2018-02-11T15:38:05.299Z,15.00
2018-02-11T15:40:32.238Z,13.77
2018-02-11T15:42:59.203Z,18.07
2018-02-11T15:45:26.160Z,15.30
2018-02-11T15:47:52.342Z,18.70
2018-02-11T15:50:18.569Z,16.60
2018-02-11T15:52:44.749Z,13.60
2018-02-11T15:55:10.906Z,12.23
2018-02-11T15:57:37.215Z,13.17
2018-02-11T16:00:03.486Z,18.70
2018-02-11T16:02:29.699Z,13.77
2018-02-11T16:04:55.882Z,11.53
2018-02-11T16:07:22.810Z,14.20
2018-02-11T16:09:49.696Z,11.97
2018-02-11T16:12:15.901Z,10.20
2018-02-11T16:14:42.132Z,15.07
2018-02-11T16:17:08.342Z,8.67
2018-02-11T16:19:35.317Z,10.40
2018-02-11T16:22:01.570Z,8.83
2018-02-11T16:24:27.790Z,9.10
2018-02-11T16:26:53.990Z,9.93
2018-02-11T16:29:20.203Z,8.30
2018-02-11T16:31:47.188Z,12.70
2018-02-11T16:34:13.463Z,9.60
2018-02-11T16:36:39.725Z,9.63
2018-02-11T16:39:05.943Z,10.00
2018-02-11T16:41:32.123Z,9.37
2018-02-11T16:43:58.266Z,7.87
2018-02-11T16:46:25.186Z,8.40
2018-02-11T16:48:51.341Z,8.87
2018-02-11T16:51:19.339Z,9.30
2018-02-11T16:53:46.293Z,7.53
2018-02-11T16:56:12.509Z,6.07
2018-02-11T16:58:39.483Z,8.83
2018-02-11T17:01:05.692Z,7.40
2018-02-11T17:03:31.905Z,9.10
2018-02-11T17:05:58.870Z,7.17
2018-02-11T17:08:25.104Z,9.90
2018-02-11T17:10:51.405Z,6.93
2018-02-11T17:13:17.587Z,6.40
2018-02-11T17:15:43.766Z,10.35
2018-02-11T17:18:10.748Z,7.20
2018-02-11T17:20:36.981Z,6.20
2018-02-11T17:23:03.217Z,7.50
2018-02-11T17:25:29.403Z,6.50
2018-02-11T17:27:56.313Z,7.87
2018-02-11T17:30:22.467Z,6.83
2018-02-11T17:32:49.372Z,13.13
2018-02-11T17:35:15.628Z,8.03
2018-02-11T17:37:42.536Z,9.80
2018-02-11T17:40:08.697Z,7.70
2018-02-11T17:42:35.621Z,9.60
2018-02-11T17:45:01.806Z,7.03
2018-02-11T17:47:27.999Z,10.77
2018-02-11T17:49:55.302Z,7.33
2018-02-11T17:52:21.461Z,6.80
2018-02-11T17:54:47.608Z,7.47
2018-02-11T17:57:14.549Z,7.27
2018-02-11T17:59:40.722Z,9.03
2018-02-11T18:02:06.921Z,8.23
2018-02-11T18:04:33.827Z,7.27
2018-02-11T18:06:59.957Z,7.30
2018-02-11T18:09:26.183Z,7.63
2018-02-11T18:11:53.129Z,9.00
2018-02-11T18:14:20.822Z,11.33
2018-02-11T18:16:47.757Z,7.00
2018-02-11T18:19:14.694Z,8.60
2018-02-11T18:21:40.876Z,8.27
2018-02-11T18:24:07.052Z,10.87
2018-02-11T18:26:34.023Z,6.60
2018-02-11T18:29:00.937Z,7.03
2018-02-11T18:31:27.886Z,9.47
2018-02-11T18:33:54.854Z,9.13
2018-02-11T18:36:21.113Z,9.20
2018-02-11T18:38:47.332Z,13.63
2018-02-11T18:41:13.537Z,9.60
2018-02-11T18:43:40.499Z,9.50
2018-02-11T18:46:06.738Z,8.23
2018-02-11T18:48:32.954Z,9.90
2018-02-11T18:50:59.210Z,10.93
2018-02-11T18:53:25.473Z,10.63
2018-02-11T18:55:51.677Z,8.63
2018-02-11T18:58:17.858Z,8.40
2018-02-11T19:00:44.068Z,7.63
2018-02-11T19:03:10.991Z,10.30
2018-02-11T19:05:37.169Z,10.03
2018-02-11T19:08:03.411Z,11.40
2018-02-11T19:10:29.597Z,12.50
2018-02-11T19:12:56.603Z,10.60
2018-02-11T19:15:22.765Z,10.30
2018-02-11T19:17:49.721Z,10.77
2018-02-11T19:20:16.645Z,9.03
2018-02-11T19:22:42.893Z,10.07
2018-02-11T19:25:09.821Z,7.97
2018-02-11T19:27:36.763Z,9.53
2018-02-11T19:30:03.031Z,8.30
2018-02-11T19:32:29.306Z,10.17
2018-02-11T19:34:55.455Z,9.60
2018-02-11T19:37:22.428Z,9.43
2018-02-11T19:39:48.651Z,15.93
2018-02-11T19:42:14.833Z,13.77
2018-02-11T19:44:41.054Z,15.00
2018-02-11T19:47:07.294Z,11.70
2018-02-11T19:49:33.515Z,12.77
2018-02-11T19:51:59.702Z,11.07
2018-02-11T19:54:25.873Z,9.70
2018-02-11T19:56:52.402Z,9.00
2018-02-11T19:59:18.578Z,12.30
2018-02-11T20:01:48.470Z,12.27
2018-02-11T20:04:15.760Z,12.67
2018-02-11T20:06:43.740Z,13.07
2018-02-11T20:09:10.046Z,11.33
2018-02-11T20:11:36.328Z,8.57
2018-02-11T20:14:02.537Z,9.80
2018-02-11T20:16:28.756Z,9.07
2018-02-11T20:18:55.038Z,7.63
2018-02-11T20:21:22.022Z,9.43
2018-02-11T20:23:48.261Z,7.30
2018-02-11T20:26:14.507Z,11.10
2018-02-11T20:28:40.714Z,8.33
2018-02-11T20:31:06.918Z,7.43
2018-02-11T20:33:33.183Z,7.47
2018-02-11T20:35:59.307Z,8.90
2018-02-11T20:38:25.566Z,11.50
2018-02-11T20:40:51.794Z,6.70
2018-02-11T20:43:18.019Z,9.43
2018-02-11T20:45:44.230Z,7.40
2018-02-11T20:48:10.455Z,6.83
2018-02-11T20:50:36.704Z,5.90
2018-02-11T20:53:02.884Z,7.80
2018-02-11T20:55:29.124Z,7.73
2018-02-11T20:57:55.336Z,6.20
2018-02-11T21:00:21.531Z,6.63
2018-02-11T21:02:47.750Z,6.83
2018-02-11T21:05:14.694Z,6.80
2018-02-11T21:07:41.665Z,6.67
2018-02-11T21:10:08.560Z,11.70
2018-02-11T21:12:34.703Z,7.40
2018-02-11T21:15:00.940Z,10.43
2018-02-11T21:17:27.915Z,5.43
2018-02-11T21:19:54.191Z,7.23
2018-02-11T21:22:20.348Z,5.40
2018-02-11T21:24:46.569Z,6.77
2018-02-11T21:27:13.513Z,7.53
2018-02-11T21:29:39.655Z,6.50
2018-02-11T21:32:05.923Z,8.23
2018-02-11T21:34:32.161Z,5.93
2018-02-11T21:36:58.393Z,7.90
2018-02-11T21:39:24.632Z,5.93
2018-02-11T21:41:50.762Z,10.10
2018-02-11T21:44:16.931Z,5.80
2018-02-11T21:46:43.893Z,5.33
2018-02-11T21:49:10.800Z,8.70
2018-02-11T21:51:36.928Z,6.20
2018-02-11T21:54:03.179Z,8.93
2018-02-11T21:56:30.117Z,8.97
2018-02-11T21:58:57.089Z,5.13
2018-02-11T22:01:23.299Z,5.80
2018-02-11T22:03:50.312Z,9.07
2018-02-11T22:06:16.499Z,5.43
2018-02-11T22:08:42.701Z,8.97
2018-02-11T22:11:09.594Z,8.57
2018-02-11T22:13:35.783Z,5.63
2018-02-11T22:16:02.726Z,12.50
2018-02-11T22:18:28.911Z,12.87
2018-02-11T22:20:55.127Z,5.27
2018-02-11T22:23:21.267Z,5.97
2018-02-11T22:25:47.481Z,10.73
2018-02-11T22:28:13.679Z,5.90
2018-02-11T22:30:39.815Z,7.83
2018-02-11T22:33:05.977Z,8.13
2018-02-11T22:35:32.121Z,6.77
2018-02-11T22:37:59.024Z,4.93
2018-02-11T22:40:25.232Z,6.57
2018-02-11T22:42:51.426Z,6.87
2018-02-11T22:45:18.398Z,8.83
2018-02-11T22:47:44.631Z,5.27
2018-02-11T22:50:10.794Z,9.10
2018-02-11T22:52:36.965Z,5.07
2018-02-11T22:55:03.853Z,4.90
2018-02-11T22:57:30.032Z,5.40
2018-02-11T22:59:56.971Z,6.70
2018-02-11T23:02:23.883Z,6.10
2018-02-11T23:04:50.045Z,5.50
2018-02-11T23:07:16.978Z,5.60
2018-02-11T23:09:44.222Z,6.03
2018-02-11T23:12:11.082Z,8.13
2018-02-11T23:14:37.954Z,9.03
2018-02-11T23:17:04.161Z,5.13
2018-02-11T23:19:43.355Z,6.80
2018-02-11T23:22:09.574Z,5.10
2018-02-11T23:24:35.689Z,6.20
2018-02-11T23:27:01.864Z,10.20
2018-02-11T23:29:28.009Z,6.03
2018-02-11T23:31:54.895Z,13.77
2018-02-11T23:34:21.105Z,6.23
2018-02-11T23:36:47.252Z,4.60
2018-02-11T23:39:13.427Z,5.10
2018-02-11T23:41:40.386Z,14.63
2018-02-11T23:44:06.539Z,7.03
2018-02-11T23:46:32.720Z,7.23
2018-02-11T23:48:59.593Z,5.57
2018-02-11T23:51:25.723Z,4.93
2018-02-11T23:53:51.917Z,4.90
2018-02-11T23:56:18.844Z,7.77
2018-02-11T23:58:45.041Z,7.70
